Rechercher aéroport 
image banner adimage banner ad
image banner ad

SVFX - Fundo La Marquesena

Situé à Barinas, Venezuela

ICAO - SVFX, IATA -

Données fournies par Airmate  

Information générale

Coordonnées: N8°50'30" W70°2'30"
Élévation : 442 feet MSL.
 
Voir autres Aéroports à Apure

Données opérationnelles

Accessible au public
Heure actuelle UTC:
Heure actuelle locale:
METAR: SVBI 261402Z AUTO 19001KT NCD 31/23 Q1017
Voir NOTAMs / SUP AIP / TFR affectant cet aéroport [VIEW]
Fréquences de communication: [VIEW]

Pistes:

Identifiant RWYQFULongueur (ft)Largeur (ft)SurfaceLDA (ft)
0700
2500

Coordonnées de l'aéroport

Adresse: Barinas Venezuela

Vue satellite de SVFX